Strona główna
METAR-TAF:

METAR-TAF

Lotnisko :

Port lotniczy Tarakan-Juwata

Tarakan, Indonezja

Szerokość geograficzna: 03-19-36N, Długość geograficzna: 117-33-56E, wysokość: 6 m

METAR: brakujący

czas: 15:35 (08:35 UTC)

Prognoza

Raport powstał 21 godziny i 35 minut temu, godzina 11:00 UTC
Prognoza ważna od 03 godzina 12 UTC do 03 godzina 24 UTC
Wiatr 2 kt od wschód
Widzialność: 8000 m
Rozproszone chmury na wysokości 1500 ft

TAF: WAQQ 031100Z 0312/0324 09002KT 8000 SCT015

Obserwacja i prognoza pogody dla ponad 4000 lotnisk (raport METAR i TAF).

Dostępne stacje oznaczono żółtymi i czerwonymi punktami na mapie.

Najedź kursorem aby zobaczyć nazwę stacji.

Kliknij aby zobaczyć obserwacje i prognozy pogody.

Aby zmienić mapę: kliknij na zielony przycisk z czarnym krzyżykiem, aby powiększyć; na zielony przycisk z myślnikiem, aby pomniejszyć; na zielone strzałki, aby przejść do map sąsiednich.


METAR-TAF: